Dawson Creek Airport
CYDQ : now visible

Airfield :











YOU CAN JOIN US ON...

 
LOGIN :

Register | Disclaimer

   EN    FR    IT 

 









Legend :    VFR   Marginal VFR   IFR   Intensive IFR   Very Intensive IFR
Visi :
Ceiling :
>= 8 km
>= 3000ft
5 to 8 km
1000 to 3000 ft
1500m to 5 km
500 to 1000 ft
800 to 1500m
200 to 500 ft
< 800m
< 200 ft
Symbols :   Thunderstorms  Fog  Heavy snow  Heavy precipitations  Wind > 20 kt







- Airport Elevation : 2148 ft
- IATA code : YDQ


CYDQ - Dawson Creek

CURRENT METAR :
  • 212100Z AUTO 25015G24KT 9SM FEW250 18/07 A2968 RMK SLP059 DENSITY ALT 3300FT

EXPIRED METARs :
  • 212000Z AUTO 25015G30KT 9SM FEW240 20/07 A2970 RMK SLP065 DENSITY ALT 3400FT
  • 211900Z AUTO 23016G29KT 9SM CLR 19/06 A2970 RMK SLP067 DENSITY ALT 3300FT

TAF TAF CYDQ
Valid from the 21 at 19:00 until the 22 at 05:00 UTC


211838Z 2119/2205 24020G30KT P6SM SKC
FM212200 25018G28KT P6SM SCT120
TEMPO 2122/2203 BKN100
BECMG 2201/2203 24012G22KT RMK FCST BASED ON AUTO OBS. NXT FCST BY 220100Z
No reported NOTAMs for that airfield.



MET'MAP, your aeronautical weather chart ! - Copyright ORBIFLY December 2007 - Disclaimer

ORBIFLY MET'MAP TEAM :

Programming & Development : Alexandra Zaïnal
Concept & Development : Baudouin d'Aumeries
Co-Development & Prog : Marc-Olivier Méhu
Technical & hardware support : Manuel Goepfert

Contact : metmap@orbifly.com




SOURCES & CREDITS :

   NOAA       Earth
Advisory